sensor_id;sensor_type;location;lat;lon;timestamp;temperature;humidity
47022;DHT22;32779;52.264;6.154;2022-12-11T00:01:56;0.00;99.90
47022;DHT22;32779;52.264;6.154;2022-12-11T00:04:22;0.00;99.90
47022;DHT22;32779;52.264;6.154;2022-12-11T00:06:48;0.00;99.90
47022;DHT22;32779;52.264;6.154;2022-12-11T00:09:18;0.00;99.90
47022;DHT22;32779;52.264;6.154;2022-12-11T00:11:44;0.10;99.90
47022;DHT22;32779;52.264;6.154;2022-12-11T00:14:10;0.00;99.90
47022;DHT22;32779;52.264;6.154;2022-12-11T00:16:36;0.00;99.90
47022;DHT22;32779;52.264;6.154;2022-12-11T00:19:01;0.00;99.90
47022;DHT22;32779;52.264;6.154;2022-12-11T00:21:27;0.00;99.90
47022;DHT22;32779;52.264;6.154;2022-12-11T00:23:53;0.10;99.90
47022;DHT22;32779;52.264;6.154;2022-12-11T00:26:19;0.10;99.90
47022;DHT22;32779;52.264;6.154;2022-12-11T00:28:45;0.10;99.90
47022;DHT22;32779;52.264;6.154;2022-12-11T00:31:15;0.10;99.90
47022;DHT22;32779;52.264;6.154;2022-12-11T00:33:42;0.10;99.90
47022;DHT22;32779;52.264;6.154;2022-12-11T00:36:12;0.00;99.90
47022;DHT22;32779;52.264;6.154;2022-12-11T00:38:38;0.00;99.90
47022;DHT22;32779;52.264;6.154;2022-12-11T00:41:04;0.00;99.90
47022;DHT22;32779;52.264;6.154;2022-12-11T00:43:30;0.00;99.90
47022;DHT22;32779;52.264;6.154;2022-12-11T00:45:56;0.00;99.90
47022;DHT22;32779;52.264;6.154;2022-12-11T00:48:22;0.00;99.90
47022;DHT22;32779;52.264;6.154;2022-12-11T00:50:47;0.00;99.90
47022;DHT22;32779;52.264;6.154;2022-12-11T00:53:13;0.00;99.90
47022;DHT22;32779;52.264;6.154;2022-12-11T00:55:40;0.00;99.90
47022;DHT22;32779;52.264;6.154;2022-12-11T00:58:06;0.00;99.90
47022;DHT22;32779;52.264;6.154;2022-12-11T01:00:32;0.00;99.90
47022;DHT22;32779;52.264;6.154;2022-12-11T01:02:58;0.00;99.90
47022;DHT22;32779;52.264;6.154;2022-12-11T01:05:24;0.00;99.90
47022;DHT22;32779;52.264;6.154;2022-12-11T01:07:49;0.00;99.90
47022;DHT22;32779;52.264;6.154;2022-12-11T01:10:15;0.00;99.90
47022;DHT22;32779;52.264;6.154;2022-12-11T01:12:52;0.00;99.90
47022;DHT22;32779;52.264;6.154;2022-12-11T01:15:19;0.10;99.90
47022;DHT22;32779;52.264;6.154;2022-12-11T01:17:45;0.00;99.90
47022;DHT22;32779;52.264;6.154;2022-12-11T01:20:11;0.10;99.90
47022;DHT22;32779;52.264;6.154;2022-12-11T01:22:37;0.10;99.90
47022;DHT22;32779;52.264;6.154;2022-12-11T01:25:03;0.10;99.90
47022;DHT22;32779;52.264;6.154;2022-12-11T01:27:29;0.10;99.90
47022;DHT22;32779;52.264;6.154;2022-12-11T01:29:55;0.00;99.90
47022;DHT22;32779;52.264;6.154;2022-12-11T01:32:20;0.10;99.90
47022;DHT22;32779;52.264;6.154;2022-12-11T01:34:46;0.10;99.90
47022;DHT22;32779;52.264;6.154;2022-12-11T01:37:12;0.10;99.90
47022;DHT22;32779;52.264;6.154;2022-12-11T01:39:37;0.10;99.90
47022;DHT22;32779;52.264;6.154;2022-12-11T01:42:03;0.10;99.90
47022;DHT22;32779;52.264;6.154;2022-12-11T01:46:56;0.10;99.90
47022;DHT22;32779;52.264;6.154;2022-12-11T01:49:23;0.10;99.90
47022;DHT22;32779;52.264;6.154;2022-12-11T01:52:14;0.10;99.90
47022;DHT22;32779;52.264;6.154;2022-12-11T01:54:41;0.10;99.90
47022;DHT22;32779;52.264;6.154;2022-12-11T01:57:08;0.10;99.90
47022;DHT22;32779;52.264;6.154;2022-12-11T01:59:39;0.10;99.90
47022;DHT22;32779;52.264;6.154;2022-12-11T02:02:08;0.10;99.90
47022;DHT22;32779;52.264;6.154;2022-12-11T02:04:38;0.10;99.90
47022;DHT22;32779;52.264;6.154;2022-12-11T02:07:04;0.10;99.90
47022;DHT22;32779;52.264;6.154;2022-12-11T02:09:32;0.10;99.90
47022;DHT22;32779;52.264;6.154;2022-12-11T02:17:28;0.10;99.90
47022;DHT22;32779;52.264;6.154;2022-12-11T02:31:34;0.20;99.90
47022;DHT22;32779;52.264;6.154;2022-12-11T02:37:02;0.10;99.90
47022;DHT22;32779;52.264;6.154;2022-12-11T02:39:29;0.10;99.90
47022;DHT22;32779;52.264;6.154;2022-12-11T02:41:55;0.10;99.90
47022;DHT22;32779;52.264;6.154;2022-12-11T02:44:25;0.10;99.90
47022;DHT22;32779;52.264;6.154;2022-12-11T02:46:53;0.20;99.90
47022;DHT22;32779;52.264;6.154;2022-12-11T02:49:20;0.20;99.90
47022;DHT22;32779;52.264;6.154;2022-12-11T02:51:46;0.20;99.90
47022;DHT22;32779;52.264;6.154;2022-12-11T02:54:33;0.20;99.90
47022;DHT22;32779;52.264;6.154;2022-12-11T02:57:07;0.20;99.90
47022;DHT22;32779;52.264;6.154;2022-12-11T02:59:39;0.20;99.90
47022;DHT22;32779;52.264;6.154;2022-12-11T03:02:06;0.20;99.90
47022;DHT22;32779;52.264;6.154;2022-12-11T03:04:33;0.10;99.90
47022;DHT22;32779;52.264;6.154;2022-12-11T03:07:05;0.10;99.90
47022;DHT22;32779;52.264;6.154;2022-12-11T03:09:37;0.20;99.90
47022;DHT22;32779;52.264;6.154;2022-12-11T03:12:02;0.20;99.90
47022;DHT22;32779;52.264;6.154;2022-12-11T03:14:28;0.20;99.90
47022;DHT22;32779;52.264;6.154;2022-12-11T03:17:01;0.20;99.90
47022;DHT22;32779;52.264;6.154;2022-12-11T03:19:41;0.20;99.90
47022;DHT22;32779;52.264;6.154;2022-12-11T03:22:21;0.20;99.90
47022;DHT22;32779;52.264;6.154;2022-12-11T03:25:03;0.20;99.90
47022;DHT22;32779;52.264;6.154;2022-12-11T03:27:44;0.20;99.90
47022;DHT22;32779;52.264;6.154;2022-12-11T03:30:15;0.20;99.90
47022;DHT22;32779;52.264;6.154;2022-12-11T03:32:53;0.20;99.90
47022;DHT22;32779;52.264;6.154;2022-12-11T03:35:46;0.20;99.90
47022;DHT22;32779;52.264;6.154;2022-12-11T03:38:18;0.20;99.90
47022;DHT22;32779;52.264;6.154;2022-12-11T03:40:48;0.20;99.90
47022;DHT22;32779;52.264;6.154;2022-12-11T03:43:16;0.20;99.90
47022;DHT22;32779;52.264;6.154;2022-12-11T03:45:43;0.20;99.90
47022;DHT22;32779;52.264;6.154;2022-12-11T03:48:11;0.20;99.90
47022;DHT22;32779;52.264;6.154;2022-12-11T03:50:39;0.20;99.90
47022;DHT22;32779;52.264;6.154;2022-12-11T03:53:06;0.20;99.90
47022;DHT22;32779;52.264;6.154;2022-12-11T03:55:33;0.20;99.90
47022;DHT22;32779;52.264;6.154;2022-12-11T03:58:00;0.30;99.90
47022;DHT22;32779;52.264;6.154;2022-12-11T04:00:26;0.30;99.90
47022;DHT22;32779;52.264;6.154;2022-12-11T04:02:52;0.30;99.90
47022;DHT22;32779;52.264;6.154;2022-12-11T04:05:36;0.30;99.90
47022;DHT22;32779;52.264;6.154;2022-12-11T04:08:02;0.30;99.90
47022;DHT22;32779;52.264;6.154;2022-12-11T04:10:28;0.40;99.90
47022;DHT22;32779;52.264;6.154;2022-12-11T04:12:53;0.40;99.90
47022;DHT22;32779;52.264;6.154;2022-12-11T04:15:19;0.40;99.90
47022;DHT22;32779;52.264;6.154;2022-12-11T04:17:44;0.40;99.90
47022;DHT22;32779;52.264;6.154;2022-12-11T04:20:28;0.40;99.90
47022;DHT22;32779;52.264;6.154;2022-12-11T04:23:15;0.40;99.90
47022;DHT22;32779;52.264;6.154;2022-12-11T04:28:33;0.30;99.90
47022;DHT22;32779;52.264;6.154;2022-12-11T04:30:59;0.30;99.90
47022;DHT22;32779;52.264;6.154;2022-12-11T04:33:25;0.30;99.90
47022;DHT22;32779;52.264;6.154;2022-12-11T04:35:50;0.30;99.90
47022;DHT22;32779;52.264;6.154;2022-12-11T04:38:16;0.30;99.90
47022;DHT22;32779;52.264;6.154;2022-12-11T04:40:41;0.40;99.90
47022;DHT22;32779;52.264;6.154;2022-12-11T04:43:07;0.40;99.90
47022;DHT22;32779;52.264;6.154;2022-12-11T04:45:33;0.40;99.90
47022;DHT22;32779;52.264;6.154;2022-12-11T04:47:58;0.40;99.90
47022;DHT22;32779;52.264;6.154;2022-12-11T04:50:24;0.40;99.90
47022;DHT22;32779;52.264;6.154;2022-12-11T04:52:54;0.40;99.90
47022;DHT22;32779;52.264;6.154;2022-12-11T04:55:19;0.40;99.90
47022;DHT22;32779;52.264;6.154;2022-12-11T04:57:45;0.40;99.90
47022;DHT22;32779;52.264;6.154;2022-12-11T05:00:12;0.40;99.90
47022;DHT22;32779;52.264;6.154;2022-12-11T05:02:39;0.40;99.90
47022;DHT22;32779;52.264;6.154;2022-12-11T05:05:06;0.40;99.90
47022;DHT22;32779;52.264;6.154;2022-12-11T05:07:34;0.40;99.90
47022;DHT22;32779;52.264;6.154;2022-12-11T05:10:00;0.40;99.90
47022;DHT22;32779;52.264;6.154;2022-12-11T05:12:25;0.40;99.90
47022;DHT22;32779;52.264;6.154;2022-12-11T05:14:52;0.50;99.90
47022;DHT22;32779;52.264;6.154;2022-12-11T05:17:22;0.50;99.90
47022;DHT22;32779;52.264;6.154;2022-12-11T05:19:49;0.50;99.90
47022;DHT22;32779;52.264;6.154;2022-12-11T05:22:15;0.50;99.90
47022;DHT22;32779;52.264;6.154;2022-12-11T05:24:40;0.50;99.90
47022;DHT22;32779;52.264;6.154;2022-12-11T05:27:06;0.50;99.90
47022;DHT22;32779;52.264;6.154;2022-12-11T05:29:32;0.60;99.90
47022;DHT22;32779;52.264;6.154;2022-12-11T05:31:57;0.60;99.90
47022;DHT22;32779;52.264;6.154;2022-12-11T05:34:23;0.60;99.90
47022;DHT22;32779;52.264;6.154;2022-12-11T05:36:48;0.60;99.90
47022;DHT22;32779;52.264;6.154;2022-12-11T05:39:15;0.60;99.90
47022;DHT22;32779;52.264;6.154;2022-12-11T05:41:40;0.60;99.90
47022;DHT22;32779;52.264;6.154;2022-12-11T05:44:06;0.60;99.90
47022;DHT22;32779;52.264;6.154;2022-12-11T05:46:31;0.60;99.90
47022;DHT22;32779;52.264;6.154;2022-12-11T05:48:59;0.70;99.90
47022;DHT22;32779;52.264;6.154;2022-12-11T05:51:26;0.70;99.90
47022;DHT22;32779;52.264;6.154;2022-12-11T05:53:54;0.60;99.90
47022;DHT22;32779;52.264;6.154;2022-12-11T05:56:25;0.60;99.90
47022;DHT22;32779;52.264;6.154;2022-12-11T05:58:52;0.60;99.90
47022;DHT22;32779;52.264;6.154;2022-12-11T06:01:25;0.60;99.90
47022;DHT22;32779;52.264;6.154;2022-12-11T06:03:52;0.60;99.90
47022;DHT22;32779;52.264;6.154;2022-12-11T06:06:18;0.60;99.90
47022;DHT22;32779;52.264;6.154;2022-12-11T06:08:44;0.60;99.90
47022;DHT22;32779;52.264;6.154;2022-12-11T06:11:11;0.70;99.90
47022;DHT22;32779;52.264;6.154;2022-12-11T06:13:38;0.60;99.90
47022;DHT22;32779;52.264;6.154;2022-12-11T06:16:05;0.60;99.90
47022;DHT22;32779;52.264;6.154;2022-12-11T06:18:34;0.60;99.90
47022;DHT22;32779;52.264;6.154;2022-12-11T06:21:00;0.70;99.90
47022;DHT22;32779;52.264;6.154;2022-12-11T06:23:26;0.70;99.90
47022;DHT22;32779;52.264;6.154;2022-12-11T06:25:51;0.70;99.90
47022;DHT22;32779;52.264;6.154;2022-12-11T06:28:17;0.70;99.90
47022;DHT22;32779;52.264;6.154;2022-12-11T06:30:43;0.60;99.90
47022;DHT22;32779;52.264;6.154;2022-12-11T06:33:09;0.60;99.90
47022;DHT22;32779;52.264;6.154;2022-12-11T06:35:35;0.70;99.90
47022;DHT22;32779;52.264;6.154;2022-12-11T06:38:00;0.60;99.90
47022;DHT22;32779;52.264;6.154;2022-12-11T06:40:26;0.70;99.90
47022;DHT22;32779;52.264;6.154;2022-12-11T06:42:53;0.70;99.90
47022;DHT22;32779;52.264;6.154;2022-12-11T06:45:19;0.70;99.90
47022;DHT22;32779;52.264;6.154;2022-12-11T06:47:44;0.70;99.90
47022;DHT22;32779;52.264;6.154;2022-12-11T06:50:10;0.70;99.90
47022;DHT22;32779;52.264;6.154;2022-12-11T06:52:36;0.80;99.90
47022;DHT22;32779;52.264;6.154;2022-12-11T06:55:01;0.80;99.90
47022;DHT22;32779;52.264;6.154;2022-12-11T06:57:27;0.80;99.90
47022;DHT22;32779;52.264;6.154;2022-12-11T06:59:53;0.80;99.90
47022;DHT22;32779;52.264;6.154;2022-12-11T07:02:19;0.70;99.90
47022;DHT22;32779;52.264;6.154;2022-12-11T07:04:45;0.70;99.90
47022;DHT22;32779;52.264;6.154;2022-12-11T07:07:11;0.70;99.90
47022;DHT22;32779;52.264;6.154;2022-12-11T07:09:38;0.80;99.90
47022;DHT22;32779;52.264;6.154;2022-12-11T07:12:05;0.70;99.90
47022;DHT22;32779;52.264;6.154;2022-12-11T07:14:31;0.70;99.90
47022;DHT22;32779;52.264;6.154;2022-12-11T07:16:57;0.70;99.90
47022;DHT22;32779;52.264;6.154;2022-12-11T07:19:23;0.70;99.90
47022;DHT22;32779;52.264;6.154;2022-12-11T07:21:48;0.70;99.90
47022;DHT22;32779;52.264;6.154;2022-12-11T07:24:14;0.70;99.90
47022;DHT22;32779;52.264;6.154;2022-12-11T07:26:40;0.60;99.90
47022;DHT22;32779;52.264;6.154;2022-12-11T07:29:05;0.70;99.90
47022;DHT22;32779;52.264;6.154;2022-12-11T07:31:31;0.60;99.90
47022;DHT22;32779;52.264;6.154;2022-12-11T07:33:58;0.60;99.90
47022;DHT22;32779;52.264;6.154;2022-12-11T07:36:25;0.70;99.90
47022;DHT22;32779;52.264;6.154;2022-12-11T07:38:51;0.70;99.90
47022;DHT22;32779;52.264;6.154;2022-12-11T07:41:18;0.70;99.90
47022;DHT22;32779;52.264;6.154;2022-12-11T07:43:43;0.60;99.90
47022;DHT22;32779;52.264;6.154;2022-12-11T07:46:12;0.60;99.90
47022;DHT22;32779;52.264;6.154;2022-12-11T07:48:39;0.60;99.90
47022;DHT22;32779;52.264;6.154;2022-12-11T07:51:18;0.60;99.90
47022;DHT22;32779;52.264;6.154;2022-12-11T07:53:46;0.70;99.90
47022;DHT22;32779;52.264;6.154;2022-12-11T07:56:13;0.70;99.90
47022;DHT22;32779;52.264;6.154;2022-12-11T07:58:40;0.60;99.90
47022;DHT22;32779;52.264;6.154;2022-12-11T08:01:19;0.60;99.90
47022;DHT22;32779;52.264;6.154;2022-12-11T08:03:46;0.60;99.90
47022;DHT22;32779;52.264;6.154;2022-12-11T08:06:12;0.70;99.90
47022;DHT22;32779;52.264;6.154;2022-12-11T08:08:38;0.70;99.90
47022;DHT22;32779;52.264;6.154;2022-12-11T08:11:06;0.80;99.90
47022;DHT22;32779;52.264;6.154;2022-12-11T08:13:32;0.80;99.90
47022;DHT22;32779;52.264;6.154;2022-12-11T08:15:58;0.70;99.90
47022;DHT22;32779;52.264;6.154;2022-12-11T08:18:27;0.80;99.90
47022;DHT22;32779;52.264;6.154;2022-12-11T08:20:52;0.80;99.90
47022;DHT22;32779;52.264;6.154;2022-12-11T08:23:18;0.80;99.90
47022;DHT22;32779;52.264;6.154;2022-12-11T08:25:43;0.80;99.90
47022;DHT22;32779;52.264;6.154;2022-12-11T08:28:09;0.80;99.90
47022;DHT22;32779;52.264;6.154;2022-12-11T08:30:37;0.80;99.90
47022;DHT22;32779;52.264;6.154;2022-12-11T08:33:03;0.70;99.90
47022;DHT22;32779;52.264;6.154;2022-12-11T08:35:28;0.80;99.90
47022;DHT22;32779;52.264;6.154;2022-12-11T08:37:54;0.80;99.90
47022;DHT22;32779;52.264;6.154;2022-12-11T08:40:19;0.80;99.90
47022;DHT22;32779;52.264;6.154;2022-12-11T08:42:48;0.80;99.90
47022;DHT22;32779;52.264;6.154;2022-12-11T08:45:14;0.80;99.90
47022;DHT22;32779;52.264;6.154;2022-12-11T08:47:40;0.80;99.90
47022;DHT22;32779;52.264;6.154;2022-12-11T08:50:06;0.80;99.90
47022;DHT22;32779;52.264;6.154;2022-12-11T08:52:33;0.80;99.90
47022;DHT22;32779;52.264;6.154;2022-12-11T08:54:59;0.80;99.90
47022;DHT22;32779;52.264;6.154;2022-12-11T08:57:26;0.70;99.90
47022;DHT22;32779;52.264;6.154;2022-12-11T08:59:52;0.70;99.90
47022;DHT22;32779;52.264;6.154;2022-12-11T09:02:18;0.70;99.90
47022;DHT22;32779;52.264;6.154;2022-12-11T09:04:43;0.70;99.90
47022;DHT22;32779;52.264;6.154;2022-12-11T09:07:09;0.70;99.90
47022;DHT22;32779;52.264;6.154;2022-12-11T09:09:35;0.70;99.90
47022;DHT22;32779;52.264;6.154;2022-12-11T09:12:00;0.70;99.90
47022;DHT22;32779;52.264;6.154;2022-12-11T09:14:26;0.70;99.90
47022;DHT22;32779;52.264;6.154;2022-12-11T09:16:52;0.70;99.90
47022;DHT22;32779;52.264;6.154;2022-12-11T09:19:17;0.70;99.90
47022;DHT22;32779;52.264;6.154;2022-12-11T09:21:43;0.80;99.90
47022;DHT22;32779;52.264;6.154;2022-12-11T09:24:10;0.80;99.90
47022;DHT22;32779;52.264;6.154;2022-12-11T09:26:37;0.80;99.90
47022;DHT22;32779;52.264;6.154;2022-12-11T09:29:05;0.80;99.90
47022;DHT22;32779;52.264;6.154;2022-12-11T09:31:33;0.70;99.90
47022;DHT22;32779;52.264;6.154;2022-12-11T09:34:02;0.80;99.90
47022;DHT22;32779;52.264;6.154;2022-12-11T09:36:28;0.70;99.90
47022;DHT22;32779;52.264;6.154;2022-12-11T09:38:54;0.70;99.90
47022;DHT22;32779;52.264;6.154;2022-12-11T09:41:25;0.80;99.90
47022;DHT22;32779;52.264;6.154;2022-12-11T09:44:01;0.80;99.90
47022;DHT22;32779;52.264;6.154;2022-12-11T09:46:31;0.70;99.90
47022;DHT22;32779;52.264;6.154;2022-12-11T09:48:58;0.80;99.90
47022;DHT22;32779;52.264;6.154;2022-12-11T09:51:43;0.70;99.90
47022;DHT22;32779;52.264;6.154;2022-12-11T09:54:13;0.80;99.90
47022;DHT22;32779;52.264;6.154;2022-12-11T09:56:49;0.80;99.90
47022;DHT22;32779;52.264;6.154;2022-12-11T10:02:34;0.80;99.90
47022;DHT22;32779;52.264;6.154;2022-12-11T10:08:17;0.80;99.90
47022;DHT22;32779;52.264;6.154;2022-12-11T10:10:53;0.80;99.90
47022;DHT22;32779;52.264;6.154;2022-12-11T10:13:44;0.70;99.90
47022;DHT22;32779;52.264;6.154;2022-12-11T10:19:00;0.70;99.90
47022;DHT22;32779;52.264;6.154;2022-12-11T10:21:26;0.70;99.90
47022;DHT22;32779;52.264;6.154;2022-12-11T10:23:59;0.70;99.90
47022;DHT22;32779;52.264;6.154;2022-12-11T10:26:28;0.80;99.90
47022;DHT22;32779;52.264;6.154;2022-12-11T10:28:58;0.80;99.90
47022;DHT22;32779;52.264;6.154;2022-12-11T10:31:55;0.80;99.90
47022;DHT22;32779;52.264;6.154;2022-12-11T10:34:33;0.80;99.90
47022;DHT22;32779;52.264;6.154;2022-12-11T10:36:59;0.80;99.90
47022;DHT22;32779;52.264;6.154;2022-12-11T10:39:25;0.80;99.90
47022;DHT22;32779;52.264;6.154;2022-12-11T10:41:55;0.80;99.90
47022;DHT22;32779;52.264;6.154;2022-12-11T10:44:27;0.80;99.90
47022;DHT22;32779;52.264;6.154;2022-12-11T10:47:20;0.80;99.90
47022;DHT22;32779;52.264;6.154;2022-12-11T10:49:57;0.90;99.90
47022;DHT22;32779;52.264;6.154;2022-12-11T10:54:58;0.80;99.90
47022;DHT22;32779;52.264;6.154;2022-12-11T10:57:29;0.90;99.90
47022;DHT22;32779;52.264;6.154;2022-12-11T10:59:55;0.90;99.90
47022;DHT22;32779;52.264;6.154;2022-12-11T11:02:25;0.90;99.90
47022;DHT22;32779;52.264;6.154;2022-12-11T11:04:53;0.80;99.90
47022;DHT22;32779;52.264;6.154;2022-12-11T11:07:28;0.90;99.90
47022;DHT22;32779;52.264;6.154;2022-12-11T11:12:40;0.90;99.90
47022;DHT22;32779;52.264;6.154;2022-12-11T11:15:11;0.90;99.90
47022;DHT22;32779;52.264;6.154;2022-12-11T11:17:51;0.90;99.90
47022;DHT22;32779;52.264;6.154;2022-12-11T11:20:20;0.90;99.90
47022;DHT22;32779;52.264;6.154;2022-12-11T11:22:49;0.90;99.90
47022;DHT22;32779;52.264;6.154;2022-12-11T11:27:49;0.90;99.90
47022;DHT22;32779;52.264;6.154;2022-12-11T11:30:28;0.90;99.90
47022;DHT22;32779;52.264;6.154;2022-12-11T11:32:57;1.00;99.90
47022;DHT22;32779;52.264;6.154;2022-12-11T11:35:26;1.00;99.90
47022;DHT22;32779;52.264;6.154;2022-12-11T11:40:48;1.10;99.90
47022;DHT22;32779;52.264;6.154;2022-12-11T11:51:12;1.20;99.90
47022;DHT22;32779;52.264;6.154;2022-12-11T11:53:39;1.20;99.90
47022;DHT22;32779;52.264;6.154;2022-12-11T11:56:19;1.20;99.90
47022;DHT22;32779;52.264;6.154;2022-12-11T11:59:12;1.20;99.90
47022;DHT22;32779;52.264;6.154;2022-12-11T12:01:43;1.20;99.90
47022;DHT22;32779;52.264;6.154;2022-12-11T12:04:10;1.20;99.90
47022;DHT22;32779;52.264;6.154;2022-12-11T12:06:56;1.20;99.90
47022;DHT22;32779;52.264;6.154;2022-12-11T12:17:57;1.20;99.90
47022;DHT22;32779;52.264;6.154;2022-12-11T12:23:21;1.20;99.90
47022;DHT22;32779;52.264;6.154;2022-12-11T12:26:04;1.10;99.90
47022;DHT22;32779;52.264;6.154;2022-12-11T12:37:17;1.30;99.90
47022;DHT22;32779;52.264;6.154;2022-12-11T12:40:09;1.30;99.90
47022;DHT22;32779;52.264;6.154;2022-12-11T12:47:41;1.30;99.90
47022;DHT22;32779;52.264;6.154;2022-12-11T12:50:32;1.30;99.90
47022;DHT22;32779;52.264;6.154;2022-12-11T12:53:01;1.30;99.90
47022;DHT22;32779;52.264;6.154;2022-12-11T12:55:29;1.30;99.90
47022;DHT22;32779;52.264;6.154;2022-12-11T12:57:57;1.40;99.90
47022;DHT22;32779;52.264;6.154;2022-12-11T13:00:39;1.40;99.90
47022;DHT22;32779;52.264;6.154;2022-12-11T13:03:23;1.30;99.90
47022;DHT22;32779;52.264;6.154;2022-12-11T13:06:41;1.40;99.90
47022;DHT22;32779;52.264;6.154;2022-12-11T13:09:23;1.30;99.90
47022;DHT22;32779;52.264;6.154;2022-12-11T13:11:52;1.30;99.90
47022;DHT22;32779;52.264;6.154;2022-12-11T13:16:49;1.30;99.90
47022;DHT22;32779;52.264;6.154;2022-12-11T13:19:25;1.30;99.90
47022;DHT22;32779;52.264;6.154;2022-12-11T13:21:58;1.30;99.90
47022;DHT22;32779;52.264;6.154;2022-12-11T13:24:28;1.40;99.90
47022;DHT22;32779;52.264;6.154;2022-12-11T13:26:54;1.30;99.90
47022;DHT22;32779;52.264;6.154;2022-12-11T13:29:32;1.30;99.90
47022;DHT22;32779;52.264;6.154;2022-12-11T13:32:03;1.30;99.90
47022;DHT22;32779;52.264;6.154;2022-12-11T13:34:41;1.30;99.90
47022;DHT22;32779;52.264;6.154;2022-12-11T13:37:28;1.20;99.90
47022;DHT22;32779;52.264;6.154;2022-12-11T13:39:56;1.20;99.90
47022;DHT22;32779;52.264;6.154;2022-12-11T13:42:33;1.20;99.90
47022;DHT22;32779;52.264;6.154;2022-12-11T13:45:00;1.20;99.90
47022;DHT22;32779;52.264;6.154;2022-12-11T13:47:28;1.20;99.90
47022;DHT22;32779;52.264;6.154;2022-12-11T13:50:14;1.20;99.90
47022;DHT22;32779;52.264;6.154;2022-12-11T13:52:51;1.20;99.90
47022;DHT22;32779;52.264;6.154;2022-12-11T13:55:26;1.20;99.90
47022;DHT22;32779;52.264;6.154;2022-12-11T13:57:52;1.20;99.90
47022;DHT22;32779;52.264;6.154;2022-12-11T14:00:29;1.20;99.90
47022;DHT22;32779;52.264;6.154;2022-12-11T14:02:59;1.20;99.90
47022;DHT22;32779;52.264;6.154;2022-12-11T14:05:26;1.20;99.90
47022;DHT22;32779;52.264;6.154;2022-12-11T14:07:55;1.20;99.90
47022;DHT22;32779;52.264;6.154;2022-12-11T14:10:26;1.20;99.90
47022;DHT22;32779;52.264;6.154;2022-12-11T14:13:00;1.20;99.90
47022;DHT22;32779;52.264;6.154;2022-12-11T14:15:28;1.20;99.90
47022;DHT22;32779;52.264;6.154;2022-12-11T14:17:54;1.20;99.90
47022;DHT22;32779;52.264;6.154;2022-12-11T14:20:24;1.20;99.90
47022;DHT22;32779;52.264;6.154;2022-12-11T14:22:50;1.20;99.90
47022;DHT22;32779;52.264;6.154;2022-12-11T14:25:24;1.20;99.90
47022;DHT22;32779;52.264;6.154;2022-12-11T14:27:54;1.20;99.90
47022;DHT22;32779;52.264;6.154;2022-12-11T14:30:27;1.20;99.90
47022;DHT22;32779;52.264;6.154;2022-12-11T14:32:59;1.20;99.90
47022;DHT22;32779;52.264;6.154;2022-12-11T14:35:30;1.20;99.90
47022;DHT22;32779;52.264;6.154;2022-12-11T14:37:59;1.10;99.90
47022;DHT22;32779;52.264;6.154;2022-12-11T14:40:30;1.20;99.90
47022;DHT22;32779;52.264;6.154;2022-12-11T14:43:01;1.10;99.90
47022;DHT22;32779;52.264;6.154;2022-12-11T14:47:57;1.10;99.90
47022;DHT22;32779;52.264;6.154;2022-12-11T14:53:07;1.10;99.90
47022;DHT22;32779;52.264;6.154;2022-12-11T14:55:34;1.10;99.90
47022;DHT22;32779;52.264;6.154;2022-12-11T14:58:04;1.10;99.90
47022;DHT22;32779;52.264;6.154;2022-12-11T15:00:36;1.10;99.90
47022;DHT22;32779;52.264;6.154;2022-12-11T15:04:00;1.10;99.90
47022;DHT22;32779;52.264;6.154;2022-12-11T15:05:54;1.10;99.90
47022;DHT22;32779;52.264;6.154;2022-12-11T15:08:32;1.10;99.90
47022;DHT22;32779;52.264;6.154;2022-12-11T15:13:59;1.10;99.90
47022;DHT22;32779;52.264;6.154;2022-12-11T15:16:26;1.10;99.90
47022;DHT22;32779;52.264;6.154;2022-12-11T15:18:54;1.10;99.90
47022;DHT22;32779;52.264;6.154;2022-12-11T15:21:31;1.10;99.90
47022;DHT22;32779;52.264;6.154;2022-12-11T15:24:00;1.10;99.90
47022;DHT22;32779;52.264;6.154;2022-12-11T15:26:35;1.10;99.90
47022;DHT22;32779;52.264;6.154;2022-12-11T15:34:55;1.20;99.90
47022;DHT22;32779;52.264;6.154;2022-12-11T15:37:25;1.10;99.90
47022;DHT22;32779;52.264;6.154;2022-12-11T15:39:51;1.10;99.90
47022;DHT22;32779;52.264;6.154;2022-12-11T15:42:26;1.10;99.90
47022;DHT22;32779;52.264;6.154;2022-12-11T15:44:53;1.10;99.90
47022;DHT22;32779;52.264;6.154;2022-12-11T15:47:26;1.10;99.90
47022;DHT22;32779;52.264;6.154;2022-12-11T15:49:59;1.00;99.90
47022;DHT22;32779;52.264;6.154;2022-12-11T15:52:26;1.00;99.90
47022;DHT22;32779;52.264;6.154;2022-12-11T15:54:52;1.00;99.90
47022;DHT22;32779;52.264;6.154;2022-12-11T15:57:20;1.00;99.90
47022;DHT22;32779;52.264;6.154;2022-12-11T15:59:47;1.00;99.90
47022;DHT22;32779;52.264;6.154;2022-12-11T16:02:14;1.00;99.90
47022;DHT22;32779;52.264;6.154;2022-12-11T16:04:40;1.00;99.90
47022;DHT22;32779;52.264;6.154;2022-12-11T16:07:21;0.90;99.90
47022;DHT22;32779;52.264;6.154;2022-12-11T16:09:47;0.90;99.90
47022;DHT22;32779;52.264;6.154;2022-12-11T16:12:13;1.00;99.90
47022;DHT22;32779;52.264;6.154;2022-12-11T16:14:42;1.00;99.90
47022;DHT22;32779;52.264;6.154;2022-12-11T16:17:10;1.00;99.90
47022;DHT22;32779;52.264;6.154;2022-12-11T16:19:37;0.90;99.90
47022;DHT22;32779;52.264;6.154;2022-12-11T16:22:04;0.90;99.90
47022;DHT22;32779;52.264;6.154;2022-12-11T16:24:31;1.00;99.90
47022;DHT22;32779;52.264;6.154;2022-12-11T16:26:56;0.90;99.90
47022;DHT22;32779;52.264;6.154;2022-12-11T16:29:22;0.90;99.90
47022;DHT22;32779;52.264;6.154;2022-12-11T16:31:48;0.90;99.90
47022;DHT22;32779;52.264;6.154;2022-12-11T16:34:13;0.80;99.90
47022;DHT22;32779;52.264;6.154;2022-12-11T16:36:39;0.80;99.90
47022;DHT22;32779;52.264;6.154;2022-12-11T16:39:05;0.90;99.90
47022;DHT22;32779;52.264;6.154;2022-12-11T16:41:30;0.90;99.90
47022;DHT22;32779;52.264;6.154;2022-12-11T16:43:56;0.80;99.90
47022;DHT22;32779;52.264;6.154;2022-12-11T16:46:23;0.90;99.90
47022;DHT22;32779;52.264;6.154;2022-12-11T16:48:49;0.90;99.90
47022;DHT22;32779;52.264;6.154;2022-12-11T16:51:15;0.90;99.90
47022;DHT22;32779;52.264;6.154;2022-12-11T16:53:41;0.90;99.90
47022;DHT22;32779;52.264;6.154;2022-12-11T16:56:07;0.90;99.90
47022;DHT22;32779;52.264;6.154;2022-12-11T16:58:33;0.90;99.90
47022;DHT22;32779;52.264;6.154;2022-12-11T17:01:00;0.90;99.90
47022;DHT22;32779;52.264;6.154;2022-12-11T17:03:30;0.80;99.90
47022;DHT22;32779;52.264;6.154;2022-12-11T17:05:56;0.80;99.90
47022;DHT22;32779;52.264;6.154;2022-12-11T17:08:22;0.80;99.90
47022;DHT22;32779;52.264;6.154;2022-12-11T17:10:49;0.80;99.90
47022;DHT22;32779;52.264;6.154;2022-12-11T17:13:15;0.80;99.90
47022;DHT22;32779;52.264;6.154;2022-12-11T17:15:41;0.80;99.90
47022;DHT22;32779;52.264;6.154;2022-12-11T17:18:08;0.80;99.90
47022;DHT22;32779;52.264;6.154;2022-12-11T17:20:33;0.80;99.90
47022;DHT22;32779;52.264;6.154;2022-12-11T17:22:59;0.90;99.90
47022;DHT22;32779;52.264;6.154;2022-12-11T17:25:25;0.90;99.90
47022;DHT22;32779;52.264;6.154;2022-12-11T17:27:51;0.90;99.90
47022;DHT22;32779;52.264;6.154;2022-12-11T17:30:16;0.80;99.90
47022;DHT22;32779;52.264;6.154;2022-12-11T17:32:46;0.80;99.90